Wheeler, OR (97147)

12:40 PM PST on December 27, 2014 (GMT -0800)
Central Rockaway | Change Station
CLOSE
Current Station
Personal Weather Station
Location: Rockaway Beach, OR
Elevation: 39 ft
Nearby Weather Stations

Elev 39 ft 45.62 °N, 123.94 °W | Updated 9 seconds ago

Rain
Rain
50.5 °F
Feels Like 50.5 °F
N
10.7
Wind Variable Wind from NW
Gusts 17.4 mph

Today
High -- | Low -- °F
--% Chance of Precip.
Yesterday
High -- | Low -- °F
Precip. -- in
7:55 AM 4:37 PM
Waxing Crescent, 40% visible
Pressure 30.25 in
Visibility 5.0 miles
Clouds Scattered Clouds 1000 ft
Mostly Cloudy 3200 ft
Overcast 5000 ft
Dew Point 44 °F
Humidity 78%
Rainfall 0.40 in
Snow Depth Not available.
UV 1 out of 12
Pollen .50 out of 12
Air Quality Not available.
Flu Activity Not available.
METAR KTMK 272015Z AUTO 24011G18KT 5SM RA SCT010 BKN032 OVC050 11/10 A3025 RMK AO2 P0002

More Conditions Fewer Conditions

Pressure 30.25 in
Visibility 5.0 miles
Clouds Scattered Clouds 1000 ft
Mostly Cloudy 3200 ft
Overcast 5000 ft
Dew Point 44 °F
Humidity 78%
Rainfall 0.40 in
Snow Depth Not available.
UV 1 out of 12
Pollen .50 out of 12
Air Quality Not available.
Flu Activity Not available.
METAR KTMK 272015Z AUTO 24011G18KT 5SM RA SCT010 BKN032 OVC050 11/10 A3025 RMK AO2 P0002

More Conditions Fewer Conditions

10-Day Weather Forecast

Almanac

Astronomy

Dec. 27, 2014 Rise Set
Actual Time
Civil Twilight
Nautical Twilight
Astronomical Twilight
Moon
Length of Visible Light
Length of Day
Tomorrow will be .
, % of the Moon is Illuminated

Today's Extremes

State Highs State Lows

Community

WunderPhotos

Upload Photos

1,781,053 photos uploaded!

WunderBlogs® & News

Nearby

Air Quality

  Air Quality AQ Index Pollutant
Not available.

Snow Depth

Station Depth Elevation

Earthquake Activity

City Distance Mag. Time & Date
Minimum magnitude displayed is 2.5.

Coastal Water Temperatures

Place Temperature

Nearby Weather Stations